sensor_id;sensor_type;location;lat;lon;timestamp;P1;durP1;ratioP1;P2;durP2;ratioP2
55684;SDS011;41883;49.544;8.646;2023-08-30T00:01:45;0.10;;;0.10;;
55684;SDS011;41883;49.544;8.646;2023-08-30T00:04:11;0.10;;;0.10;;
55684;SDS011;41883;49.544;8.646;2023-08-30T00:06:36;0.10;;;0.10;;
55684;SDS011;41883;49.544;8.646;2023-08-30T00:09:02;0.10;;;0.10;;
55684;SDS011;41883;49.544;8.646;2023-08-30T00:11:27;0.10;;;0.10;;
55684;SDS011;41883;49.544;8.646;2023-08-30T00:14:01;0.10;;;0.10;;
55684;SDS011;41883;49.544;8.646;2023-08-30T00:16:26;0.10;;;0.10;;
55684;SDS011;41883;49.544;8.646;2023-08-30T00:18:52;0.10;;;0.10;;
55684;SDS011;41883;49.544;8.646;2023-08-30T00:21:17;0.10;;;0.10;;
55684;SDS011;41883;49.544;8.646;2023-08-30T00:23:42;0.10;;;0.10;;
55684;SDS011;41883;49.544;8.646;2023-08-30T00:26:07;0.10;;;0.10;;
55684;SDS011;41883;49.544;8.646;2023-08-30T00:28:32;0.10;;;0.10;;
55684;SDS011;41883;49.544;8.646;2023-08-30T00:30:57;0.10;;;0.10;;
55684;SDS011;41883;49.544;8.646;2023-08-30T00:33:22;0.10;;;0.10;;
55684;SDS011;41883;49.544;8.646;2023-08-30T00:35:54;0.13;;;0.13;;
55684;SDS011;41883;49.544;8.646;2023-08-30T00:38:20;0.10;;;0.10;;
55684;SDS011;41883;49.544;8.646;2023-08-30T00:40:45;0.10;;;0.10;;
55684;SDS011;41883;49.544;8.646;2023-08-30T00:43:10;0.20;;;0.20;;
55684;SDS011;41883;49.544;8.646;2023-08-30T00:45:35;0.10;;;0.10;;
55684;SDS011;41883;49.544;8.646;2023-08-30T00:48:03;0.10;;;0.10;;
55684;SDS011;41883;49.544;8.646;2023-08-30T00:50:29;0.10;;;0.10;;
55684;SDS011;41883;49.544;8.646;2023-08-30T00:52:54;0.10;;;0.10;;
55684;SDS011;41883;49.544;8.646;2023-08-30T00:55:20;0.10;;;0.10;;
55684;SDS011;41883;49.544;8.646;2023-08-30T00:57:45;0.20;;;0.20;;
55684;SDS011;41883;49.544;8.646;2023-08-30T01:00:10;0.20;;;0.20;;
55684;SDS011;41883;49.544;8.646;2023-08-30T01:02:36;0.10;;;0.10;;
55684;SDS011;41883;49.544;8.646;2023-08-30T01:05:02;0.10;;;0.10;;
55684;SDS011;41883;49.544;8.646;2023-08-30T01:07:28;0.10;;;0.10;;
55684;SDS011;41883;49.544;8.646;2023-08-30T01:09:53;0.10;;;0.10;;
55684;SDS011;41883;49.544;8.646;2023-08-30T01:12:23;0.10;;;0.10;;
55684;SDS011;41883;49.544;8.646;2023-08-30T01:17:25;0.10;;;0.10;;
55684;SDS011;41883;49.544;8.646;2023-08-30T01:20:04;0.10;;;0.10;;
55684;SDS011;41883;49.544;8.646;2023-08-30T01:27:35;0.20;;;0.20;;
55684;SDS011;41883;49.544;8.646;2023-08-30T01:30:02;0.10;;;0.10;;
55684;SDS011;41883;49.544;8.646;2023-08-30T01:32:29;0.10;;;0.10;;
55684;SDS011;41883;49.544;8.646;2023-08-30T01:34:55;0.10;;;0.10;;
55684;SDS011;41883;49.544;8.646;2023-08-30T01:37:20;0.10;;;0.10;;
55684;SDS011;41883;49.544;8.646;2023-08-30T01:39:46;0.10;;;0.10;;
55684;SDS011;41883;49.544;8.646;2023-08-30T01:42:12;0.20;;;0.20;;
55684;SDS011;41883;49.544;8.646;2023-08-30T01:44:39;0.10;;;0.10;;
55684;SDS011;41883;49.544;8.646;2023-08-30T01:47:06;0.10;;;0.10;;
55684;SDS011;41883;49.544;8.646;2023-08-30T01:49:31;0.10;;;0.10;;
55684;SDS011;41883;49.544;8.646;2023-08-30T01:51:57;0.10;;;0.10;;
55684;SDS011;41883;49.544;8.646;2023-08-30T01:54:22;0.10;;;0.10;;
55684;SDS011;41883;49.544;8.646;2023-08-30T01:56:49;0.10;;;0.10;;
55684;SDS011;41883;49.544;8.646;2023-08-30T01:59:14;0.10;;;0.10;;
55684;SDS011;41883;49.544;8.646;2023-08-30T02:01:39;0.10;;;0.10;;
55684;SDS011;41883;49.544;8.646;2023-08-30T02:04:04;0.10;;;0.10;;
55684;SDS011;41883;49.544;8.646;2023-08-30T02:06:39;0.10;;;0.10;;
55684;SDS011;41883;49.544;8.646;2023-08-30T02:09:08;0.10;;;0.10;;
55684;SDS011;41883;49.544;8.646;2023-08-30T02:11:34;0.10;;;0.10;;
55684;SDS011;41883;49.544;8.646;2023-08-30T02:14:01;0.10;;;0.10;;
55684;SDS011;41883;49.544;8.646;2023-08-30T02:16:29;0.10;;;0.10;;
55684;SDS011;41883;49.544;8.646;2023-08-30T02:18:55;0.10;;;0.10;;
55684;SDS011;41883;49.544;8.646;2023-08-30T02:21:21;0.10;;;0.10;;
55684;SDS011;41883;49.544;8.646;2023-08-30T02:23:50;0.10;;;0.10;;
55684;SDS011;41883;49.544;8.646;2023-08-30T02:26:17;0.10;;;0.10;;
55684;SDS011;41883;49.544;8.646;2023-08-30T02:28:42;0.10;;;0.10;;
55684;SDS011;41883;49.544;8.646;2023-08-30T02:31:07;0.10;;;0.10;;
55684;SDS011;41883;49.544;8.646;2023-08-30T02:33:32;0.10;;;0.10;;
55684;SDS011;41883;49.544;8.646;2023-08-30T02:35:58;0.10;;;0.10;;
55684;SDS011;41883;49.544;8.646;2023-08-30T02:38:23;0.10;;;0.10;;
55684;SDS011;41883;49.544;8.646;2023-08-30T02:40:48;0.10;;;0.10;;
55684;SDS011;41883;49.544;8.646;2023-08-30T02:43:13;0.10;;;0.10;;
55684;SDS011;41883;49.544;8.646;2023-08-30T02:45:39;0.10;;;0.10;;
55684;SDS011;41883;49.544;8.646;2023-08-30T02:48:05;0.10;;;0.10;;
55684;SDS011;41883;49.544;8.646;2023-08-30T02:50:30;0.10;;;0.10;;
55684;SDS011;41883;49.544;8.646;2023-08-30T02:52:55;0.10;;;0.10;;
55684;SDS011;41883;49.544;8.646;2023-08-30T02:55:20;0.10;;;0.10;;
55684;SDS011;41883;49.544;8.646;2023-08-30T02:57:45;0.10;;;0.10;;
55684;SDS011;41883;49.544;8.646;2023-08-30T03:00:11;0.10;;;0.10;;
55684;SDS011;41883;49.544;8.646;2023-08-30T03:02:37;0.10;;;0.10;;
55684;SDS011;41883;49.544;8.646;2023-08-30T03:05:02;0.10;;;0.10;;
55684;SDS011;41883;49.544;8.646;2023-08-30T03:07:29;0.20;;;0.20;;
55684;SDS011;41883;49.544;8.646;2023-08-30T03:09:54;0.10;;;0.10;;
55684;SDS011;41883;49.544;8.646;2023-08-30T03:12:19;0.10;;;0.10;;
55684;SDS011;41883;49.544;8.646;2023-08-30T03:14:45;0.10;;;0.10;;
55684;SDS011;41883;49.544;8.646;2023-08-30T03:17:10;0.10;;;0.10;;
55684;SDS011;41883;49.544;8.646;2023-08-30T03:19:35;0.10;;;0.10;;
55684;SDS011;41883;49.544;8.646;2023-08-30T03:22:01;0.10;;;0.10;;
55684;SDS011;41883;49.544;8.646;2023-08-30T03:24:26;0.10;;;0.10;;
55684;SDS011;41883;49.544;8.646;2023-08-30T03:26:51;0.10;;;0.10;;
55684;SDS011;41883;49.544;8.646;2023-08-30T03:29:16;0.10;;;0.10;;
55684;SDS011;41883;49.544;8.646;2023-08-30T03:31:41;0.10;;;0.10;;
55684;SDS011;41883;49.544;8.646;2023-08-30T03:34:08;0.10;;;0.10;;
55684;SDS011;41883;49.544;8.646;2023-08-30T03:36:33;0.13;;;0.13;;
55684;SDS011;41883;49.544;8.646;2023-08-30T03:38:58;0.10;;;0.10;;
55684;SDS011;41883;49.544;8.646;2023-08-30T03:41:24;0.10;;;0.10;;
55684;SDS011;41883;49.544;8.646;2023-08-30T03:43:49;0.10;;;0.10;;
55684;SDS011;41883;49.544;8.646;2023-08-30T03:46:14;0.10;;;0.10;;
55684;SDS011;41883;49.544;8.646;2023-08-30T03:48:39;0.10;;;0.10;;
55684;SDS011;41883;49.544;8.646;2023-08-30T03:51:05;0.10;;;0.10;;
55684;SDS011;41883;49.544;8.646;2023-08-30T03:53:30;0.10;;;0.10;;
55684;SDS011;41883;49.544;8.646;2023-08-30T03:55:55;0.10;;;0.10;;
55684;SDS011;41883;49.544;8.646;2023-08-30T03:58:20;0.10;;;0.10;;
55684;SDS011;41883;49.544;8.646;2023-08-30T04:00:46;0.10;;;0.10;;
55684;SDS011;41883;49.544;8.646;2023-08-30T04:03:13;0.10;;;0.10;;
55684;SDS011;41883;49.544;8.646;2023-08-30T04:05:38;0.10;;;0.10;;
55684;SDS011;41883;49.544;8.646;2023-08-30T04:08:04;0.10;;;0.10;;
55684;SDS011;41883;49.544;8.646;2023-08-30T04:10:29;0.10;;;0.10;;
55684;SDS011;41883;49.544;8.646;2023-08-30T04:12:59;0.10;;;0.10;;
55684;SDS011;41883;49.544;8.646;2023-08-30T04:15:24;0.10;;;0.10;;
55684;SDS011;41883;49.544;8.646;2023-08-30T04:17:49;0.10;;;0.10;;
55684;SDS011;41883;49.544;8.646;2023-08-30T04:20:14;0.10;;;0.10;;
55684;SDS011;41883;49.544;8.646;2023-08-30T04:22:40;0.10;;;0.10;;
55684;SDS011;41883;49.544;8.646;2023-08-30T04:25:05;0.10;;;0.10;;
55684;SDS011;41883;49.544;8.646;2023-08-30T04:27:34;0.10;;;0.10;;
55684;SDS011;41883;49.544;8.646;2023-08-30T04:30:02;0.10;;;0.10;;
55684;SDS011;41883;49.544;8.646;2023-08-30T04:32:27;0.10;;;0.10;;
55684;SDS011;41883;49.544;8.646;2023-08-30T04:34:52;0.10;;;0.10;;
55684;SDS011;41883;49.544;8.646;2023-08-30T04:37:18;0.10;;;0.10;;
55684;SDS011;41883;49.544;8.646;2023-08-30T04:39:46;0.10;;;0.10;;
55684;SDS011;41883;49.544;8.646;2023-08-30T04:42:11;0.13;;;0.13;;
55684;SDS011;41883;49.544;8.646;2023-08-30T04:44:37;0.10;;;0.10;;
55684;SDS011;41883;49.544;8.646;2023-08-30T04:47:02;0.10;;;0.10;;
55684;SDS011;41883;49.544;8.646;2023-08-30T04:49:28;0.10;;;0.10;;
55684;SDS011;41883;49.544;8.646;2023-08-30T04:51:54;0.10;;;0.10;;
55684;SDS011;41883;49.544;8.646;2023-08-30T04:54:19;0.10;;;0.10;;
55684;SDS011;41883;49.544;8.646;2023-08-30T04:56:44;0.20;;;0.20;;
55684;SDS011;41883;49.544;8.646;2023-08-30T04:59:10;0.13;;;0.13;;
55684;SDS011;41883;49.544;8.646;2023-08-30T05:01:35;0.10;;;0.10;;
55684;SDS011;41883;49.544;8.646;2023-08-30T05:04:00;0.10;;;0.10;;
55684;SDS011;41883;49.544;8.646;2023-08-30T05:06:26;0.10;;;0.10;;
55684;SDS011;41883;49.544;8.646;2023-08-30T05:08:51;0.10;;;0.10;;
55684;SDS011;41883;49.544;8.646;2023-08-30T05:11:16;0.10;;;0.10;;
55684;SDS011;41883;49.544;8.646;2023-08-30T05:13:41;0.10;;;0.10;;
55684;SDS011;41883;49.544;8.646;2023-08-30T05:16:06;0.10;;;0.10;;
55684;SDS011;41883;49.544;8.646;2023-08-30T05:18:32;0.10;;;0.10;;
55684;SDS011;41883;49.544;8.646;2023-08-30T05:20:57;0.10;;;0.10;;
55684;SDS011;41883;49.544;8.646;2023-08-30T05:23:22;0.10;;;0.10;;
55684;SDS011;41883;49.544;8.646;2023-08-30T05:25:47;0.10;;;0.10;;
55684;SDS011;41883;49.544;8.646;2023-08-30T05:28:12;0.10;;;0.10;;
55684;SDS011;41883;49.544;8.646;2023-08-30T05:30:42;0.10;;;0.10;;
55684;SDS011;41883;49.544;8.646;2023-08-30T05:33:07;0.10;;;0.10;;
55684;SDS011;41883;49.544;8.646;2023-08-30T05:35:33;0.17;;;0.17;;
55684;SDS011;41883;49.544;8.646;2023-08-30T05:37:58;0.10;;;0.10;;
55684;SDS011;41883;49.544;8.646;2023-08-30T05:40:24;0.10;;;0.10;;
55684;SDS011;41883;49.544;8.646;2023-08-30T05:42:49;0.10;;;0.10;;
55684;SDS011;41883;49.544;8.646;2023-08-30T05:45:15;0.10;;;0.10;;
55684;SDS011;41883;49.544;8.646;2023-08-30T05:47:40;0.10;;;0.10;;
55684;SDS011;41883;49.544;8.646;2023-08-30T05:50:05;0.10;;;0.10;;
55684;SDS011;41883;49.544;8.646;2023-08-30T05:52:31;0.10;;;0.10;;
55684;SDS011;41883;49.544;8.646;2023-08-30T05:54:57;0.10;;;0.10;;
55684;SDS011;41883;49.544;8.646;2023-08-30T05:57:22;0.10;;;0.10;;
55684;SDS011;41883;49.544;8.646;2023-08-30T05:59:48;0.10;;;0.10;;
55684;SDS011;41883;49.544;8.646;2023-08-30T06:02:13;0.10;;;0.10;;
55684;SDS011;41883;49.544;8.646;2023-08-30T06:04:39;0.10;;;0.10;;
55684;SDS011;41883;49.544;8.646;2023-08-30T06:07:05;0.10;;;0.10;;
55684;SDS011;41883;49.544;8.646;2023-08-30T06:09:30;0.10;;;0.10;;
55684;SDS011;41883;49.544;8.646;2023-08-30T06:11:55;0.10;;;0.10;;
55684;SDS011;41883;49.544;8.646;2023-08-30T06:14:21;0.10;;;0.10;;
55684;SDS011;41883;49.544;8.646;2023-08-30T06:16:46;0.10;;;0.10;;
55684;SDS011;41883;49.544;8.646;2023-08-30T06:19:12;0.10;;;0.10;;
55684;SDS011;41883;49.544;8.646;2023-08-30T06:21:37;0.10;;;0.10;;
55684;SDS011;41883;49.544;8.646;2023-08-30T06:24:02;0.00;;;0.00;;
55684;SDS011;41883;49.544;8.646;2023-08-30T06:26:28;0.10;;;0.10;;
55684;SDS011;41883;49.544;8.646;2023-08-30T06:28:53;0.10;;;0.10;;
55684;SDS011;41883;49.544;8.646;2023-08-30T06:31:18;0.10;;;0.10;;
55684;SDS011;41883;49.544;8.646;2023-08-30T06:33:43;0.10;;;0.10;;
55684;SDS011;41883;49.544;8.646;2023-08-30T06:36:09;0.10;;;0.10;;
55684;SDS011;41883;49.544;8.646;2023-08-30T06:38:36;0.10;;;0.10;;
55684;SDS011;41883;49.544;8.646;2023-08-30T06:41:01;0.10;;;0.10;;
55684;SDS011;41883;49.544;8.646;2023-08-30T06:43:26;0.10;;;0.10;;
55684;SDS011;41883;49.544;8.646;2023-08-30T06:45:51;0.10;;;0.10;;
55684;SDS011;41883;49.544;8.646;2023-08-30T06:48:18;0.10;;;0.10;;
55684;SDS011;41883;49.544;8.646;2023-08-30T06:50:46;0.10;;;0.10;;
55684;SDS011;41883;49.544;8.646;2023-08-30T06:53:11;0.10;;;0.10;;
55684;SDS011;41883;49.544;8.646;2023-08-30T06:55:36;0.10;;;0.10;;
55684;SDS011;41883;49.544;8.646;2023-08-30T06:58:02;0.10;;;0.10;;
55684;SDS011;41883;49.544;8.646;2023-08-30T07:00:28;0.10;;;0.10;;
55684;SDS011;41883;49.544;8.646;2023-08-30T07:02:53;125.85;;;97.00;;
55684;SDS011;41883;49.544;8.646;2023-08-30T07:05:18;0.10;;;0.10;;
55684;SDS011;41883;49.544;8.646;2023-08-30T07:07:44;0.10;;;0.10;;
55684;SDS011;41883;49.544;8.646;2023-08-30T07:10:09;0.10;;;0.10;;
55684;SDS011;41883;49.544;8.646;2023-08-30T07:12:34;0.20;;;0.20;;
55684;SDS011;41883;49.544;8.646;2023-08-30T07:15:00;0.10;;;0.10;;
55684;SDS011;41883;49.544;8.646;2023-08-30T07:17:25;0.10;;;0.10;;
55684;SDS011;41883;49.544;8.646;2023-08-30T07:19:50;0.10;;;0.10;;
55684;SDS011;41883;49.544;8.646;2023-08-30T07:22:16;0.10;;;0.10;;
55684;SDS011;41883;49.544;8.646;2023-08-30T07:24:42;0.10;;;0.10;;
55684;SDS011;41883;49.544;8.646;2023-08-30T07:27:07;0.10;;;0.10;;
55684;SDS011;41883;49.544;8.646;2023-08-30T07:29:33;0.10;;;0.10;;
55684;SDS011;41883;49.544;8.646;2023-08-30T07:31:58;0.10;;;0.10;;
55684;SDS011;41883;49.544;8.646;2023-08-30T07:34:23;0.10;;;0.10;;
55684;SDS011;41883;49.544;8.646;2023-08-30T07:36:49;0.10;;;0.10;;
55684;SDS011;41883;49.544;8.646;2023-08-30T07:39:14;0.10;;;0.10;;
55684;SDS011;41883;49.544;8.646;2023-08-30T07:41:39;0.10;;;0.10;;
55684;SDS011;41883;49.544;8.646;2023-08-30T07:44:04;0.10;;;0.10;;
55684;SDS011;41883;49.544;8.646;2023-08-30T07:46:30;0.10;;;0.10;;
55684;SDS011;41883;49.544;8.646;2023-08-30T07:48:55;0.10;;;0.10;;
55684;SDS011;41883;49.544;8.646;2023-08-30T07:51:21;0.10;;;0.10;;
55684;SDS011;41883;49.544;8.646;2023-08-30T07:53:46;0.10;;;0.10;;
55684;SDS011;41883;49.544;8.646;2023-08-30T07:56:11;0.10;;;0.10;;
55684;SDS011;41883;49.544;8.646;2023-08-30T07:58:36;0.10;;;0.10;;
55684;SDS011;41883;49.544;8.646;2023-08-30T08:01:01;0.10;;;0.10;;
55684;SDS011;41883;49.544;8.646;2023-08-30T08:03:27;0.10;;;0.10;;
55684;SDS011;41883;49.544;8.646;2023-08-30T08:05:52;0.10;;;0.10;;
55684;SDS011;41883;49.544;8.646;2023-08-30T08:08:18;0.10;;;0.10;;
55684;SDS011;41883;49.544;8.646;2023-08-30T08:10:43;0.10;;;0.10;;
55684;SDS011;41883;49.544;8.646;2023-08-30T08:13:08;0.10;;;0.10;;
55684;SDS011;41883;49.544;8.646;2023-08-30T08:15:34;0.10;;;0.10;;
55684;SDS011;41883;49.544;8.646;2023-08-30T08:17:59;0.08;;;0.08;;
55684;SDS011;41883;49.544;8.646;2023-08-30T08:20:25;0.10;;;0.10;;
55684;SDS011;41883;49.544;8.646;2023-08-30T08:22:51;0.00;;;0.00;;
55684;SDS011;41883;49.544;8.646;2023-08-30T08:25:16;0.00;;;0.00;;
55684;SDS011;41883;49.544;8.646;2023-08-30T08:27:41;0.10;;;0.10;;
55684;SDS011;41883;49.544;8.646;2023-08-30T08:30:07;0.00;;;0.00;;
55684;SDS011;41883;49.544;8.646;2023-08-30T08:32:32;0.10;;;0.10;;
55684;SDS011;41883;49.544;8.646;2023-08-30T08:34:58;0.10;;;0.10;;
55684;SDS011;41883;49.544;8.646;2023-08-30T08:37:23;183.52;;;148.02;;
55684;SDS011;41883;49.544;8.646;2023-08-30T08:39:49;174.73;;;155.63;;
55684;SDS011;41883;49.544;8.646;2023-08-30T08:42:16;176.77;;;158.80;;
55684;SDS011;41883;49.544;8.646;2023-08-30T08:44:41;333.30;;;297.92;;
55684;SDS011;41883;49.544;8.646;2023-08-30T08:47:08;23.45;;;19.80;;
55684;SDS011;41883;49.544;8.646;2023-08-30T08:49:33;1.90;;;1.80;;
55684;SDS011;41883;49.544;8.646;2023-08-30T08:51:58;1.70;;;1.60;;
55684;SDS011;41883;49.544;8.646;2023-08-30T08:54:24;0.10;;;0.10;;
55684;SDS011;41883;49.544;8.646;2023-08-30T08:56:50;0.00;;;0.00;;
55684;SDS011;41883;49.544;8.646;2023-08-30T08:59:15;0.10;;;0.10;;
55684;SDS011;41883;49.544;8.646;2023-08-30T09:01:41;0.65;;;0.45;;
55684;SDS011;41883;49.544;8.646;2023-08-30T09:04:07;56.13;;;50.53;;
55684;SDS011;41883;49.544;8.646;2023-08-30T09:06:33;0.38;;;0.22;;
55684;SDS011;41883;49.544;8.646;2023-08-30T09:08:58;63.97;;;58.23;;
55684;SDS011;41883;49.544;8.646;2023-08-30T09:11:23;43.33;;;39.20;;
55684;SDS011;41883;49.544;8.646;2023-08-30T09:13:48;27.63;;;25.20;;
55684;SDS011;41883;49.544;8.646;2023-08-30T09:16:14;0.00;;;0.00;;
55684;SDS011;41883;49.544;8.646;2023-08-30T09:18:42;26.52;;;24.50;;
55684;SDS011;41883;49.544;8.646;2023-08-30T09:21:08;0.13;;;0.13;;
55684;SDS011;41883;49.544;8.646;2023-08-30T09:23:34;56.28;;;51.25;;
55684;SDS011;41883;49.544;8.646;2023-08-30T09:26:00;0.10;;;0.10;;
55684;SDS011;41883;49.544;8.646;2023-08-30T09:28:26;0.00;;;0.00;;
55684;SDS011;41883;49.544;8.646;2023-08-30T09:30:52;0.10;;;0.10;;
55684;SDS011;41883;49.544;8.646;2023-08-30T09:33:30;0.15;;;0.15;;
55684;SDS011;41883;49.544;8.646;2023-08-30T09:35:57;0.00;;;0.00;;
55684;SDS011;41883;49.544;8.646;2023-08-30T09:38:23;0.00;;;0.00;;
55684;SDS011;41883;49.544;8.646;2023-08-30T09:40:48;0.00;;;0.00;;
55684;SDS011;41883;49.544;8.646;2023-08-30T09:43:13;0.00;;;0.00;;
55684;SDS011;41883;49.544;8.646;2023-08-30T09:45:42;0.00;;;0.00;;
55684;SDS011;41883;49.544;8.646;2023-08-30T09:48:08;0.00;;;0.00;;
55684;SDS011;41883;49.544;8.646;2023-08-30T09:50:34;0.00;;;0.00;;
55684;SDS011;41883;49.544;8.646;2023-08-30T09:53:07;0.00;;;0.00;;
55684;SDS011;41883;49.544;8.646;2023-08-30T09:55:34;0.00;;;0.00;;
55684;SDS011;41883;49.544;8.646;2023-08-30T09:58:01;0.00;;;0.00;;
55684;SDS011;41883;49.544;8.646;2023-08-30T10:00:27;0.10;;;0.10;;
55684;SDS011;41883;49.544;8.646;2023-08-30T10:02:53;0.00;;;0.00;;
55684;SDS011;41883;49.544;8.646;2023-08-30T10:05:19;0.10;;;0.10;;
55684;SDS011;41883;49.544;8.646;2023-08-30T10:07:45;0.35;;;0.20;;
55684;SDS011;41883;49.544;8.646;2023-08-30T10:10:11;1.08;;;0.88;;
55684;SDS011;41883;49.544;8.646;2023-08-30T10:12:37;0.00;;;0.00;;
55684;SDS011;41883;49.544;8.646;2023-08-30T10:15:04;0.13;;;0.13;;
55684;SDS011;41883;49.544;8.646;2023-08-30T10:17:31;2.88;;;2.70;;
55684;SDS011;41883;49.544;8.646;2023-08-30T10:19:59;2.03;;;1.23;;
55684;SDS011;41883;49.544;8.646;2023-08-30T10:22:26;30.45;;;28.20;;
55684;SDS011;41883;49.544;8.646;2023-08-30T10:24:56;44.65;;;41.17;;
55684;SDS011;41883;49.544;8.646;2023-08-30T10:27:24;15.45;;;14.35;;
55684;SDS011;41883;49.544;8.646;2023-08-30T10:29:51;68.35;;;63.20;;
55684;SDS011;41883;49.544;8.646;2023-08-30T10:32:20;264.87;;;241.93;;
55684;SDS011;41883;49.544;8.646;2023-08-30T10:34:49;215.45;;;200.25;;
55684;SDS011;41883;49.544;8.646;2023-08-30T10:37:15;16.60;;;15.43;;
55684;SDS011;41883;49.544;8.646;2023-08-30T10:39:42;89.72;;;83.10;;
55684;SDS011;41883;49.544;8.646;2023-08-30T10:42:12;80.32;;;75.07;;
55684;SDS011;41883;49.544;8.646;2023-08-30T10:47:23;12.23;;;11.32;;
55684;SDS011;41883;49.544;8.646;2023-08-30T10:49:54;59.35;;;54.80;;
55684;SDS011;41883;49.544;8.646;2023-08-30T10:52:20;11.77;;;10.80;;
55684;SDS011;41883;49.544;8.646;2023-08-30T10:54:46;15.40;;;14.27;;
55684;SDS011;41883;49.544;8.646;2023-08-30T10:57:12;0.10;;;0.10;;
55684;SDS011;41883;49.544;8.646;2023-08-30T11:02:04;0.00;;;0.00;;
55684;SDS011;41883;49.544;8.646;2023-08-30T11:04:29;568.03;;;520.70;;
55684;SDS011;41883;49.544;8.646;2023-08-30T11:06:55;560.43;;;515.33;;
55684;SDS011;41883;49.544;8.646;2023-08-30T11:09:21;593.53;;;544.87;;
55684;SDS011;41883;49.544;8.646;2023-08-30T11:11:46;547.42;;;508.30;;
55684;SDS011;41883;49.544;8.646;2023-08-30T11:14:12;666.45;;;617.25;;
55684;SDS011;41883;49.544;8.646;2023-08-30T11:16:39;516.17;;;471.27;;
55684;SDS011;41883;49.544;8.646;2023-08-30T11:19:05;589.87;;;541.37;;
55684;SDS011;41883;49.544;8.646;2023-08-30T11:21:32;18.13;;;16.90;;
55684;SDS011;41883;49.544;8.646;2023-08-30T13:04:12;11.03;;;10.20;;
55684;SDS011;41883;49.544;8.646;2023-08-30T13:06:38;24.73;;;22.85;;
55684;SDS011;41883;49.544;8.646;2023-08-30T13:09:03;0.90;;;0.57;;
55684;SDS011;41883;49.544;8.646;2023-08-30T13:11:28;1.67;;;0.68;;
55684;SDS011;41883;49.544;8.646;2023-08-30T13:13:55;0.00;;;0.00;;
55684;SDS011;41883;49.544;8.646;2023-08-30T13:16:22;0.00;;;0.00;;
55684;SDS011;41883;49.544;8.646;2023-08-30T13:18:48;0.00;;;0.00;;
55684;SDS011;41883;49.544;8.646;2023-08-30T13:21:13;31.97;;;29.80;;
55684;SDS011;41883;49.544;8.646;2023-08-30T13:23:38;13.50;;;12.40;;
55684;SDS011;41883;49.544;8.646;2023-08-30T13:26:04;72.80;;;66.00;;
55684;SDS011;41883;49.544;8.646;2023-08-30T13:28:29;137.33;;;122.07;;
55684;SDS011;41883;49.544;8.646;2023-08-30T13:30:54;0.00;;;0.00;;
55684;SDS011;41883;49.544;8.646;2023-08-30T13:33:19;0.00;;;0.00;;
55684;SDS011;41883;49.544;8.646;2023-08-30T13:35:48;0.70;;;0.70;;
55684;SDS011;41883;49.544;8.646;2023-08-30T13:47:56;5.33;;;5.00;;
55684;SDS011;41883;49.544;8.646;2023-08-30T13:50:21;0.00;;;0.00;;
55684;SDS011;41883;49.544;8.646;2023-08-30T14:00:06;0.00;;;0.00;;
55684;SDS011;41883;49.544;8.646;2023-08-30T14:05:00;0.00;;;0.00;;
55684;SDS011;41883;49.544;8.646;2023-08-30T14:07:25;0.00;;;0.00;;
55684;SDS011;41883;49.544;8.646;2023-08-30T14:09:50;0.00;;;0.00;;
55684;SDS011;41883;49.544;8.646;2023-08-30T14:14:42;0.00;;;0.00;;
55684;SDS011;41883;49.544;8.646;2023-08-30T14:17:07;0.00;;;0.00;;
55684;SDS011;41883;49.544;8.646;2023-08-30T14:19:33;0.00;;;0.00;;
55684;SDS011;41883;49.544;8.646;2023-08-30T14:21:58;0.67;;;0.57;;
55684;SDS011;41883;49.544;8.646;2023-08-30T14:24:25;4.53;;;4.20;;
55684;SDS011;41883;49.544;8.646;2023-08-30T14:26:50;0.00;;;0.00;;
55684;SDS011;41883;49.544;8.646;2023-08-30T14:29:15;0.00;;;0.00;;
55684;SDS011;41883;49.544;8.646;2023-08-30T14:34:10;0.00;;;0.00;;
55684;SDS011;41883;49.544;8.646;2023-08-30T14:36:35;0.10;;;0.10;;
55684;SDS011;41883;49.544;8.646;2023-08-30T14:39:00;0.00;;;0.00;;
55684;SDS011;41883;49.544;8.646;2023-08-30T14:41:25;0.00;;;0.00;;
55684;SDS011;41883;49.544;8.646;2023-08-30T14:43:51;0.00;;;0.00;;
55684;SDS011;41883;49.544;8.646;2023-08-30T14:46:16;0.00;;;0.00;;
55684;SDS011;41883;49.544;8.646;2023-08-30T14:48:44;0.10;;;0.10;;
55684;SDS011;41883;49.544;8.646;2023-08-30T14:51:09;0.00;;;0.00;;
55684;SDS011;41883;49.544;8.646;2023-08-30T14:53:35;0.00;;;0.00;;
55684;SDS011;41883;49.544;8.646;2023-08-30T14:56:00;0.00;;;0.00;;
55684;SDS011;41883;49.544;8.646;2023-08-30T14:58:26;0.00;;;0.00;;
55684;SDS011;41883;49.544;8.646;2023-08-30T15:00:52;0.00;;;0.00;;
55684;SDS011;41883;49.544;8.646;2023-08-30T15:03:17;0.10;;;0.10;;
55684;SDS011;41883;49.544;8.646;2023-08-30T15:05:43;0.10;;;0.10;;
55684;SDS011;41883;49.544;8.646;2023-08-30T15:08:08;0.00;;;0.00;;
55684;SDS011;41883;49.544;8.646;2023-08-30T15:10:33;0.00;;;0.00;;
55684;SDS011;41883;49.544;8.646;2023-08-30T15:17:49;0.07;;;0.07;;
55684;SDS011;41883;49.544;8.646;2023-08-30T15:20:14;0.10;;;0.10;;
55684;SDS011;41883;49.544;8.646;2023-08-30T15:22:39;1.33;;;1.27;;
55684;SDS011;41883;49.544;8.646;2023-08-30T15:25:04;0.00;;;0.00;;
55684;SDS011;41883;49.544;8.646;2023-08-30T15:27:31;0.00;;;0.00;;
55684;SDS011;41883;49.544;8.646;2023-08-30T15:29:56;0.00;;;0.00;;
55684;SDS011;41883;49.544;8.646;2023-08-30T15:32:22;0.08;;;0.08;;
55684;SDS011;41883;49.544;8.646;2023-08-30T15:34:49;0.00;;;0.00;;
55684;SDS011;41883;49.544;8.646;2023-08-30T15:37:14;0.00;;;0.00;;
55684;SDS011;41883;49.544;8.646;2023-08-30T15:39:39;0.00;;;0.00;;
55684;SDS011;41883;49.544;8.646;2023-08-30T15:42:05;0.10;;;0.10;;
55684;SDS011;41883;49.544;8.646;2023-08-30T15:44:30;0.00;;;0.00;;
55684;SDS011;41883;49.544;8.646;2023-08-30T15:46:56;0.00;;;0.00;;
55684;SDS011;41883;49.544;8.646;2023-08-30T15:49:21;0.10;;;0.10;;
55684;SDS011;41883;49.544;8.646;2023-08-30T15:51:46;0.00;;;0.00;;
55684;SDS011;41883;49.544;8.646;2023-08-30T15:54:11;0.10;;;0.10;;
55684;SDS011;41883;49.544;8.646;2023-08-30T15:56:37;8.90;;;8.13;;
55684;SDS011;41883;49.544;8.646;2023-08-30T15:59:02;0.00;;;0.00;;
55684;SDS011;41883;49.544;8.646;2023-08-30T16:01:28;0.00;;;0.00;;
55684;SDS011;41883;49.544;8.646;2023-08-30T16:03:53;24.63;;;22.88;;
55684;SDS011;41883;49.544;8.646;2023-08-30T16:06:18;0.00;;;0.00;;
55684;SDS011;41883;49.544;8.646;2023-08-30T16:08:43;0.00;;;0.00;;
55684;SDS011;41883;49.544;8.646;2023-08-30T16:11:09;0.00;;;0.00;;
55684;SDS011;41883;49.544;8.646;2023-08-30T16:13:34;0.00;;;0.00;;
55684;SDS011;41883;49.544;8.646;2023-08-30T16:15:59;13.52;;;12.43;;
55684;SDS011;41883;49.544;8.646;2023-08-30T16:18:25;0.10;;;0.10;;
55684;SDS011;41883;49.544;8.646;2023-08-30T16:20:50;0.10;;;0.10;;
55684;SDS011;41883;49.544;8.646;2023-08-30T16:23:16;0.10;;;0.10;;
55684;SDS011;41883;49.544;8.646;2023-08-30T16:25:41;8.10;;;7.38;;
55684;SDS011;41883;49.544;8.646;2023-08-30T16:28:06;0.00;;;0.00;;
55684;SDS011;41883;49.544;8.646;2023-08-30T16:30:33;0.10;;;0.10;;
55684;SDS011;41883;49.544;8.646;2023-08-30T16:32:58;0.10;;;0.10;;
55684;SDS011;41883;49.544;8.646;2023-08-30T16:35:23;0.00;;;0.00;;
55684;SDS011;41883;49.544;8.646;2023-08-30T16:37:50;0.00;;;0.00;;
55684;SDS011;41883;49.544;8.646;2023-08-30T16:40:15;0.00;;;0.00;;
55684;SDS011;41883;49.544;8.646;2023-08-30T16:42:40;0.10;;;0.10;;
55684;SDS011;41883;49.544;8.646;2023-08-30T16:45:06;0.00;;;0.00;;
55684;SDS011;41883;49.544;8.646;2023-08-30T16:47:31;0.10;;;0.10;;
55684;SDS011;41883;49.544;8.646;2023-08-30T16:49:56;0.10;;;0.10;;
55684;SDS011;41883;49.544;8.646;2023-08-30T16:52:22;0.10;;;0.10;;
55684;SDS011;41883;49.544;8.646;2023-08-30T16:54:47;0.00;;;0.00;;
55684;SDS011;41883;49.544;8.646;2023-08-30T16:57:12;0.00;;;0.00;;